NAK736 LFKC-LFMD
Flight info
| Callsign | NAK736 |
|---|---|
| Flight time | 0h 49m |
| Altitude | 6000 |
| Route | SODRI |
| Aircraft | BE58/L-SDFGRY/C |
Departure
| Time | 2026-04-21 20:14 |
|---|---|
| Airport | Calvi Sainte Catherine Airport (LFKC) |
Arrival
| Time | 2026-04-21 21:03 |
|---|---|
| Airport | Cannes Mandelieu Airport (LFMD) |
| Time | Latitude | Longitude | Altitude | Speed | Heading |
|---|---|---|---|---|---|
| 2026-04-21 20:12 | 42.52210 | 8.79171 | 268 ft | 0 kts | 131° |
| 2026-04-21 20:12 | 42.52172 | 8.79195 | 243 ft | 9 kts | 150° |
| 2026-04-21 20:13 | 42.52163 | 8.79204 | 244 ft | 0 kts | 136° |
| 2026-04-21 20:13 | 42.52157 | 8.79246 | 245 ft | 5 kts | 89° |
| 2026-04-21 20:13 | 42.52187 | 8.79303 | 243 ft | 20 kts | 3° |
| 2026-04-21 20:14 | 42.52638 | 8.79298 | 256 ft | 99 kts | 4° |
| 2026-04-21 20:14 | 42.53403 | 8.79279 | 616 ft | 119 kts | 2° |
| 2026-04-21 20:14 | 42.54308 | 8.79283 | 982 ft | 125 kts | 0° |
| 2026-04-21 20:14 | 42.55182 | 8.79294 | 1471 ft | 132 kts | 0° |
| 2026-04-21 20:15 | 42.56160 | 8.79285 | 1811 ft | 140 kts | 359° |
| 2026-04-21 20:15 | 42.57055 | 8.79277 | 2389 ft | 122 kts | 358° |
| 2026-04-21 20:15 | 42.57868 | 8.79163 | 2792 ft | 115 kts | 340° |
| 2026-04-21 20:15 | 42.58599 | 8.78761 | 3163 ft | 109 kts | 326° |
| 2026-04-21 20:16 | 42.58928 | 8.78468 | 3349 ft | 107 kts | 319° |
| 2026-04-21 20:16 | 42.59030 | 8.78358 | 3412 ft | 106 kts | 316° |
| 2026-04-21 20:16 | 42.59521 | 8.77657 | 3776 ft | 100 kts | 302° |
| 2026-04-21 20:16 | 42.59897 | 8.76875 | 4125 ft | 98 kts | 300° |
| 2026-04-21 20:17 | 42.60271 | 8.76109 | 4461 ft | 97 kts | 299° |
| 2026-04-21 20:17 | 42.60636 | 8.75352 | 4801 ft | 95 kts | 299° |
| 2026-04-21 20:17 | 42.60994 | 8.74607 | 5105 ft | 94 kts | 299° |
| 2026-04-21 20:17 | 42.61348 | 8.73870 | 5411 ft | 93 kts | 299° |
| 2026-04-21 20:18 | 42.61696 | 8.73142 | 5715 ft | 91 kts | 299° |
| 2026-04-21 20:18 | 42.62045 | 8.72410 | 5912 ft | 102 kts | 299° |
| 2026-04-21 20:18 | 42.62472 | 8.71516 | 5933 ft | 123 kts | 300° |
| 2026-04-21 20:18 | 42.62969 | 8.70480 | 5933 ft | 138 kts | 301° |
| 2026-04-21 20:19 | 42.63511 | 8.69349 | 5928 ft | 147 kts | 301° |
| 2026-04-21 20:19 | 42.64082 | 8.68156 | 5927 ft | 153 kts | 301° |
| 2026-04-21 20:19 | 42.64671 | 8.66926 | 5924 ft | 157 kts | 301° |
| 2026-04-21 20:19 | 42.65270 | 8.65671 | 5925 ft | 159 kts | 301° |
| 2026-04-21 20:20 | 42.65906 | 8.64430 | 5926 ft | 161 kts | 302° |
| 2026-04-21 20:20 | 42.66531 | 8.63161 | 5922 ft | 162 kts | 301° |
| 2026-04-21 20:20 | 42.67157 | 8.61888 | 5930 ft | 162 kts | 301° |
| 2026-04-21 20:20 | 42.67770 | 8.60606 | 5953 ft | 161 kts | 300° |
| 2026-04-21 20:21 | 42.68341 | 8.59293 | 5955 ft | 162 kts | 297° |
| 2026-04-21 20:21 | 42.68840 | 8.57925 | 5960 ft | 161 kts | 292° |
| 2026-04-21 20:21 | 42.69407 | 8.56627 | 5925 ft | 166 kts | 314° |
| 2026-04-21 20:21 | 42.70253 | 8.55567 | 5926 ft | 165 kts | 308° |
| 2026-04-21 20:22 | 42.70939 | 8.54326 | 5924 ft | 164 kts | 302° |
| 2026-04-21 20:22 | 42.72624 | 8.52308 | 5923 ft | 169 kts | 335° |
| 2026-04-21 20:22 | 42.73723 | 8.51743 | 5927 ft | 169 kts | 334° |
| 2026-04-21 20:23 | 42.74819 | 8.51167 | 5926 ft | 169 kts | 334° |
| 2026-04-21 20:23 | 42.75914 | 8.50590 | 5927 ft | 169 kts | 334° |
| 2026-04-21 20:23 | 42.77008 | 8.50016 | 5928 ft | 169 kts | 334° |
| 2026-04-21 20:23 | 42.78103 | 8.49441 | 5928 ft | 169 kts | 334° |
| 2026-04-21 20:24 | 42.79183 | 8.48873 | 5928 ft | 169 kts | 334° |
| 2026-04-21 20:24 | 42.80280 | 8.48296 | 5929 ft | 169 kts | 334° |
| 2026-04-21 20:24 | 42.81376 | 8.47720 | 5929 ft | 169 kts | 334° |
| 2026-04-21 20:24 | 42.82473 | 8.47142 | 5929 ft | 169 kts | 334° |
| 2026-04-21 20:25 | 42.83568 | 8.46565 | 5927 ft | 169 kts | 334° |
| 2026-04-21 20:25 | 42.84665 | 8.45988 | 5927 ft | 169 kts | 334° |
| 2026-04-21 20:25 | 42.85760 | 8.45411 | 5926 ft | 169 kts | 334° |
| 2026-04-21 20:25 | 42.86856 | 8.44832 | 5925 ft | 169 kts | 334° |
| 2026-04-21 20:26 | 42.87952 | 8.44255 | 5929 ft | 169 kts | 334° |
| 2026-04-21 20:26 | 42.89038 | 8.43682 | 5927 ft | 165 kts | 334° |
| 2026-04-21 20:26 | 42.90101 | 8.43121 | 5922 ft | 163 kts | 334° |
| 2026-04-21 20:26 | 42.91149 | 8.42567 | 5918 ft | 161 kts | 334° |
| 2026-04-21 20:27 | 42.92187 | 8.42019 | 5924 ft | 159 kts | 334° |
| 2026-04-21 20:27 | 42.93215 | 8.41476 | 5921 ft | 158 kts | 334° |
| 2026-04-21 20:27 | 42.94238 | 8.40935 | 5919 ft | 157 kts | 334° |
| 2026-04-21 20:27 | 42.95255 | 8.40397 | 5917 ft | 156 kts | 334° |
| 2026-04-21 20:28 | 42.96268 | 8.39861 | 5916 ft | 156 kts | 334° |
| 2026-04-21 20:28 | 42.97280 | 8.39325 | 5915 ft | 156 kts | 334° |
| 2026-04-21 20:28 | 42.98291 | 8.38790 | 5914 ft | 156 kts | 334° |
| 2026-04-21 20:28 | 42.99289 | 8.38262 | 5914 ft | 156 kts | 334° |
| 2026-04-21 20:29 | 43.00299 | 8.37727 | 5911 ft | 156 kts | 334° |
| 2026-04-21 20:29 | 43.01280 | 8.37125 | 5908 ft | 153 kts | 321° |
| 2026-04-21 20:29 | 43.01999 | 8.36096 | 5910 ft | 150 kts | 307° |
| 2026-04-21 20:29 | 43.02684 | 8.35021 | 5911 ft | 150 kts | 308° |
| 2026-04-21 20:30 | 43.03370 | 8.33948 | 5911 ft | 150 kts | 308° |
| 2026-04-21 20:30 | 43.04055 | 8.32871 | 5911 ft | 150 kts | 308° |
| 2026-04-21 20:30 | 43.04740 | 8.31793 | 5912 ft | 150 kts | 308° |
| 2026-04-21 20:30 | 43.05425 | 8.30715 | 5915 ft | 150 kts | 308° |
| 2026-04-21 20:31 | 43.06111 | 8.29633 | 5914 ft | 150 kts | 308° |
| 2026-04-21 20:31 | 43.06796 | 8.28554 | 5914 ft | 151 kts | 308° |
| 2026-04-21 20:31 | 43.07482 | 8.27472 | 5915 ft | 151 kts | 308° |
| 2026-04-21 20:31 | 43.08169 | 8.26389 | 5915 ft | 151 kts | 308° |
| 2026-04-21 20:32 | 43.08856 | 8.25306 | 5918 ft | 151 kts | 308° |
| 2026-04-21 20:32 | 43.09534 | 8.24236 | 5963 ft | 148 kts | 308° |
| 2026-04-21 20:32 | 43.10211 | 8.23166 | 5962 ft | 149 kts | 308° |
| 2026-04-21 20:32 | 43.10891 | 8.22092 | 5962 ft | 149 kts | 308° |
| 2026-04-21 20:33 | 43.11571 | 8.21018 | 5963 ft | 149 kts | 308° |
| 2026-04-21 20:33 | 43.12252 | 8.19943 | 5967 ft | 149 kts | 308° |
| 2026-04-21 20:33 | 43.12933 | 8.18867 | 5959 ft | 149 kts | 308° |
| 2026-04-21 20:33 | 43.13613 | 8.17791 | 5959 ft | 149 kts | 308° |
| 2026-04-21 20:34 | 43.14293 | 8.16717 | 5972 ft | 149 kts | 308° |
| 2026-04-21 20:34 | 43.14968 | 8.15648 | 5973 ft | 148 kts | 308° |
| 2026-04-21 20:34 | 43.15640 | 8.14582 | 5973 ft | 148 kts | 307° |
| 2026-04-21 20:34 | 43.16313 | 8.13518 | 5973 ft | 148 kts | 307° |
| 2026-04-21 20:35 | 43.16983 | 8.12455 | 5972 ft | 147 kts | 308° |
| 2026-04-21 20:35 | 43.17653 | 8.11393 | 5972 ft | 147 kts | 308° |
| 2026-04-21 20:35 | 43.18322 | 8.10333 | 5972 ft | 147 kts | 307° |
| 2026-04-21 20:35 | 43.18991 | 8.09271 | 5972 ft | 147 kts | 308° |
| 2026-04-21 20:36 | 43.19659 | 8.08210 | 5970 ft | 147 kts | 307° |
| 2026-04-21 20:36 | 43.20328 | 8.07150 | 5970 ft | 147 kts | 307° |
| 2026-04-21 20:36 | 43.20996 | 8.06088 | 5970 ft | 147 kts | 307° |
| 2026-04-21 20:36 | 43.21665 | 8.05026 | 5970 ft | 147 kts | 307° |
| 2026-04-21 20:37 | 43.22334 | 8.03964 | 5971 ft | 147 kts | 307° |
| 2026-04-21 20:37 | 43.22949 | 8.02873 | 5972 ft | 146 kts | 303° |
| 2026-04-21 20:37 | 43.23557 | 8.01753 | 5971 ft | 146 kts | 304° |
| 2026-04-21 20:37 | 43.24166 | 8.00631 | 5971 ft | 146 kts | 303° |
| 2026-04-21 20:38 | 43.24772 | 7.99511 | 5973 ft | 146 kts | 303° |
| 2026-04-21 20:38 | 43.25396 | 7.98405 | 5975 ft | 146 kts | 304° |
| 2026-04-21 20:38 | 43.25986 | 7.97267 | 5974 ft | 146 kts | 302° |
| 2026-04-21 20:38 | 43.26565 | 7.96123 | 5972 ft | 146 kts | 302° |
| 2026-04-21 20:39 | 43.27140 | 7.94974 | 5969 ft | 146 kts | 302° |
| 2026-04-21 20:39 | 43.27715 | 7.93827 | 5969 ft | 146 kts | 302° |
| 2026-04-21 20:39 | 43.28289 | 7.92681 | 5970 ft | 146 kts | 302° |
| 2026-04-21 20:39 | 43.28867 | 7.91539 | 5968 ft | 146 kts | 304° |
| 2026-04-21 20:40 | 43.29538 | 7.90486 | 5969 ft | 147 kts | 310° |
| 2026-04-21 20:40 | 43.30237 | 7.89465 | 5972 ft | 147 kts | 310° |
| 2026-04-21 20:40 | 43.30938 | 7.88444 | 5969 ft | 147 kts | 310° |
| 2026-04-21 20:40 | 43.31715 | 7.87539 | 5961 ft | 152 kts | 334° |
| 2026-04-21 20:41 | 43.32782 | 7.87636 | 5968 ft | 165 kts | 22° |
| 2026-04-21 20:41 | 43.33526 | 7.88862 | 5968 ft | 177 kts | 69° |
| 2026-04-21 20:41 | 43.33457 | 7.90526 | 5974 ft | 179 kts | 115° |
| 2026-04-21 20:41 | 43.32836 | 7.92001 | 5973 ft | 179 kts | 124° |
| 2026-04-21 20:42 | 43.32181 | 7.93450 | 5974 ft | 179 kts | 124° |
| 2026-04-21 20:42 | 43.31521 | 7.94903 | 5975 ft | 179 kts | 124° |
| 2026-04-21 20:42 | 43.30859 | 7.96357 | 5974 ft | 180 kts | 124° |
| 2026-04-21 20:42 | 43.30185 | 7.97800 | 5969 ft | 179 kts | 131° |
| 2026-04-21 20:43 | 43.29175 | 7.98638 | 5961 ft | 167 kts | 178° |
| 2026-04-21 20:43 | 43.28110 | 7.98308 | 5965 ft | 154 kts | 218° |
| 2026-04-21 20:43 | 43.27546 | 7.97184 | 5973 ft | 143 kts | 264° |
| 2026-04-21 20:43 | 43.27731 | 7.95863 | 5970 ft | 142 kts | 285° |
| 2026-04-21 20:44 | 43.27980 | 7.94548 | 5974 ft | 143 kts | 284° |
| 2026-04-21 20:44 | 43.28304 | 7.93266 | 5971 ft | 144 kts | 302° |
| 2026-04-21 20:44 | 43.28964 | 7.92228 | 5971 ft | 145 kts | 308° |
| 2026-04-21 20:44 | 43.29419 | 7.91043 | 5973 ft | 142 kts | 275° |
| 2026-04-21 20:45 | 43.29402 | 7.89684 | 5975 ft | 143 kts | 275° |
| 2026-04-21 20:45 | 43.29506 | 7.88326 | 5971 ft | 143 kts | 277° |
| 2026-04-21 20:45 | 43.29619 | 7.86970 | 5974 ft | 143 kts | 277° |
| 2026-04-21 20:45 | 43.29732 | 7.85608 | 5971 ft | 143 kts | 277° |
| 2026-04-21 20:46 | 43.29845 | 7.84249 | 5972 ft | 143 kts | 277° |
| 2026-04-21 20:46 | 43.29959 | 7.82887 | 5971 ft | 143 kts | 277° |
| 2026-04-21 20:46 | 43.30073 | 7.81528 | 5972 ft | 144 kts | 277° |
| 2026-04-21 20:46 | 43.30187 | 7.80166 | 5971 ft | 144 kts | 277° |
| 2026-04-21 20:47 | 43.30299 | 7.78818 | 5957 ft | 145 kts | 277° |
| 2026-04-21 20:47 | 43.30423 | 7.77358 | 5640 ft | 162 kts | 277° |
| 2026-04-21 20:47 | 43.30563 | 7.75776 | 5329 ft | 172 kts | 277° |
| 2026-04-21 20:47 | 43.30716 | 7.74117 | 5028 ft | 178 kts | 277° |
| 2026-04-21 20:48 | 43.30881 | 7.72411 | 4724 ft | 182 kts | 277° |
| 2026-04-21 20:48 | 43.31054 | 7.70672 | 4402 ft | 185 kts | 277° |
| 2026-04-21 20:48 | 43.31227 | 7.68911 | 4078 ft | 187 kts | 276° |
| 2026-04-21 20:48 | 43.31333 | 7.67124 | 3754 ft | 186 kts | 273° |
| 2026-04-21 20:49 | 43.31415 | 7.65381 | 3425 ft | 180 kts | 273° |
| 2026-04-21 20:49 | 43.31493 | 7.63674 | 3097 ft | 180 kts | 273° |
| 2026-04-21 20:49 | 43.31572 | 7.61948 | 2766 ft | 182 kts | 273° |
| 2026-04-21 20:49 | 43.31651 | 7.60199 | 2441 ft | 185 kts | 273° |
| 2026-04-21 20:50 | 43.31729 | 7.58431 | 2121 ft | 186 kts | 273° |
| 2026-04-21 20:50 | 43.31806 | 7.56680 | 1964 ft | 178 kts | 273° |
| 2026-04-21 20:50 | 43.31880 | 7.54993 | 1961 ft | 177 kts | 273° |
| 2026-04-21 20:50 | 43.31956 | 7.53295 | 1961 ft | 179 kts | 273° |
| 2026-04-21 20:51 | 43.32035 | 7.51581 | 1962 ft | 180 kts | 273° |
| 2026-04-21 20:51 | 43.32114 | 7.49860 | 1963 ft | 181 kts | 273° |
| 2026-04-21 20:51 | 43.32192 | 7.48133 | 1963 ft | 181 kts | 273° |
| 2026-04-21 20:51 | 43.32271 | 7.46425 | 1963 ft | 182 kts | 273° |
| 2026-04-21 20:52 | 43.32350 | 7.44696 | 1966 ft | 182 kts | 273° |
| 2026-04-21 20:52 | 43.32432 | 7.42966 | 1966 ft | 182 kts | 273° |
| 2026-04-21 20:52 | 43.32512 | 7.41233 | 1966 ft | 182 kts | 273° |
| 2026-04-21 20:52 | 43.32593 | 7.39502 | 1967 ft | 181 kts | 273° |
| 2026-04-21 20:53 | 43.32685 | 7.38340 | 1964 ft | 182 kts | 284° |
| 2026-04-21 20:53 | 43.33161 | 7.36735 | 1963 ft | 182 kts | 295° |
| 2026-04-21 20:53 | 43.33874 | 7.34655 | 1964 ft | 182 kts | 295° |
| 2026-04-21 20:53 | 43.34450 | 7.33112 | 1964 ft | 182 kts | 299° |
| 2026-04-21 20:54 | 43.34876 | 7.32095 | 1963 ft | 182 kts | 300° |
| 2026-04-21 20:54 | 43.35604 | 7.30673 | 1962 ft | 182 kts | 308° |
| 2026-04-21 20:54 | 43.36384 | 7.29304 | 1962 ft | 182 kts | 308° |
| 2026-04-21 20:54 | 43.37168 | 7.27935 | 1964 ft | 182 kts | 308° |
| 2026-04-21 20:55 | 43.37951 | 7.26565 | 1965 ft | 182 kts | 308° |
| 2026-04-21 20:55 | 43.38733 | 7.25196 | 1966 ft | 182 kts | 308° |
| 2026-04-21 20:55 | 43.39512 | 7.23828 | 1966 ft | 182 kts | 308° |
| 2026-04-21 20:55 | 43.40293 | 7.22461 | 1967 ft | 182 kts | 308° |
| 2026-04-21 20:56 | 43.41071 | 7.21079 | 1965 ft | 183 kts | 308° |
| 2026-04-21 20:56 | 43.41844 | 7.19683 | 1966 ft | 184 kts | 308° |
| 2026-04-21 20:56 | 43.42617 | 7.18280 | 1965 ft | 184 kts | 308° |
| 2026-04-21 20:56 | 43.43388 | 7.16884 | 1965 ft | 183 kts | 308° |
| 2026-04-21 20:57 | 43.44157 | 7.15489 | 1965 ft | 183 kts | 308° |
| 2026-04-21 20:57 | 43.44928 | 7.14093 | 1965 ft | 183 kts | 308° |
| 2026-04-21 20:57 | 43.45701 | 7.12699 | 1966 ft | 183 kts | 308° |
| 2026-04-21 20:57 | 43.46472 | 7.11300 | 1968 ft | 184 kts | 308° |
| 2026-04-21 20:58 | 43.47247 | 7.09895 | 1970 ft | 184 kts | 308° |
| 2026-04-21 20:58 | 43.47939 | 7.08420 | 1964 ft | 177 kts | 298° |
| 2026-04-21 20:58 | 43.48470 | 7.07014 | 1950 ft | 155 kts | 298° |
| 2026-04-21 20:58 | 43.48932 | 7.05777 | 1949 ft | 138 kts | 298° |
| 2026-04-21 20:59 | 43.49446 | 7.04719 | 1948 ft | 128 kts | 320° |
| 2026-04-21 20:59 | 43.50121 | 7.04037 | 1945 ft | 114 kts | 326° |
| 2026-04-21 20:59 | 43.50734 | 7.03418 | 1951 ft | 110 kts | 321° |
| 2026-04-21 20:59 | 43.50959 | 7.02440 | 1961 ft | 117 kts | 249° |
| 2026-04-21 21:00 | 43.50350 | 7.01788 | 1975 ft | 118 kts | 180° |
| 2026-04-21 21:00 | 43.49704 | 7.02277 | 1975 ft | 110 kts | 112° |
| 2026-04-21 21:00 | 43.49831 | 7.03235 | 1972 ft | 111 kts | 43° |
| 2026-04-21 21:00 | 43.50560 | 7.03384 | 1975 ft | 112 kts | 336° |
| 2026-04-21 21:01 | 43.51216 | 7.02887 | 1953 ft | 104 kts | 333° |
| 2026-04-21 21:01 | 43.51709 | 7.02121 | 1739 ft | 117 kts | 289° |
| 2026-04-21 21:01 | 43.51936 | 7.00994 | 1646 ft | 127 kts | 285° |
| 2026-04-21 21:01 | 43.52175 | 6.99805 | 1435 ft | 129 kts | 285° |
| 2026-04-21 21:02 | 43.52425 | 6.98621 | 1234 ft | 127 kts | 290° |
| 2026-04-21 21:02 | 43.52660 | 6.97453 | 996 ft | 121 kts | 282° |
| 2026-04-21 21:02 | 43.52827 | 6.96350 | 674 ft | 116 kts | 283° |
| 2026-04-21 21:02 | 43.53267 | 6.95476 | 338 ft | 114 kts | 329° |
| 2026-04-21 21:03 | 43.54001 | 6.95223 | 125 ft | 105 kts | 353° |
| 2026-04-21 21:03 | 43.54655 | 6.95112 | 12 ft | 81 kts | 353° |
| 2026-04-21 21:03 | 43.54944 | 6.95062 | 10 ft | 17 kts | 355° |
| 2026-04-21 21:03 | 43.55001 | 6.95112 | 10 ft | 8 kts | 77° |
| 2026-04-21 21:04 | 43.55006 | 6.95162 | 11 ft | 0 kts | 83° |
| 2026-04-21 21:04 | 43.55006 | 6.95167 | 11 ft | 2 kts | 83° |
| 2026-04-21 21:04 | 43.55006 | 6.95171 | 11 ft | 0 kts | 83° |
| 2026-04-21 21:05 | 43.54973 | 6.95224 | 11 ft | 16 kts | 170° |
| 2026-04-21 21:05 | 43.54858 | 6.95244 | 11 ft | 18 kts | 172° |
| 2026-04-21 21:05 | 43.54722 | 6.95268 | 11 ft | 20 kts | 172° |
| 2026-04-21 21:05 | 43.54585 | 6.95293 | 11 ft | 19 kts | 173° |
| 2026-04-21 21:06 | 43.54475 | 6.95313 | 11 ft | 14 kts | 170° |
| 2026-04-21 21:06 | 43.54439 | 6.95370 | 11 ft | 13 kts | 45° |
| 2026-04-21 21:06 | 43.54518 | 6.95479 | 11 ft | 21 kts | 45° |
| 2026-04-21 21:06 | 43.54618 | 6.95618 | 11 ft | 18 kts | 43° |
| 2026-04-21 21:07 | 43.54693 | 6.95716 | 12 ft | 9 kts | 24° |
| 2026-04-21 21:07 | 43.54736 | 6.95713 | 12 ft | 7 kts | 46° |
| 2026-04-21 21:07 | 43.54784 | 6.95777 | 12 ft | 10 kts | 40° |
| 2026-04-21 21:07 | 43.54812 | 6.95759 | 12 ft | 0 kts | 313° |